createdAt,value
2022-10-06T00:02:07.804Z,0.90
2022-10-06T00:05:10.380Z,0.70
2022-10-06T00:08:14.205Z,0.70
2022-10-06T00:11:17.714Z,0.70
2022-10-06T00:14:20.274Z,0.70
2022-10-06T00:17:22.765Z,0.77
2022-10-06T00:20:26.381Z,0.90
2022-10-06T00:23:30.560Z,0.70
2022-10-06T00:26:33.075Z,0.70
2022-10-06T00:29:35.556Z,0.70
2022-10-06T00:32:38.936Z,0.60
2022-10-06T00:35:41.424Z,0.70
2022-10-06T00:38:45.249Z,0.90
2022-10-06T00:41:47.734Z,0.70
2022-10-06T00:44:50.250Z,0.70
2022-10-06T00:47:54.420Z,0.73
2022-10-06T00:50:58.837Z,0.63
2022-10-06T00:54:03.893Z,0.80
2022-10-06T00:57:07.511Z,0.80
2022-10-06T01:00:11.246Z,0.80
2022-10-06T01:03:18.334Z,0.93
2022-10-06T01:06:20.834Z,0.70
2022-10-06T01:09:25.359Z,0.70
2022-10-06T01:12:30.614Z,0.70
2022-10-06T01:15:34.414Z,0.63
2022-10-06T01:18:40.368Z,0.83
2022-10-06T01:21:47.451Z,1.00
2022-10-06T01:24:52.901Z,0.70
2022-10-06T01:27:56.799Z,1.07
2022-10-06T01:31:01.606Z,0.80
2022-10-06T01:34:04.682Z,0.63
2022-10-06T01:37:07.182Z,0.60
2022-10-06T01:40:11.585Z,0.70
2022-10-06T01:43:14.124Z,0.70
2022-10-06T01:46:16.664Z,0.80
2022-10-06T01:49:19.187Z,0.70
2022-10-06T01:52:22.125Z,0.67
2022-10-06T01:55:26.451Z,0.70
2022-10-06T01:58:29.278Z,0.90
2022-10-06T02:01:32.204Z,0.80
2022-10-06T02:04:34.776Z,0.97
2022-10-06T02:07:37.974Z,0.60
2022-10-06T02:10:41.765Z,0.80
2022-10-06T02:13:44.251Z,0.80
2022-10-06T02:16:46.921Z,0.80
2022-10-06T02:19:49.419Z,0.90
2022-10-06T02:22:51.890Z,0.80
2022-10-06T02:26:00.877Z,0.77
2022-10-06T02:29:03.353Z,0.80
2022-10-06T02:32:06.147Z,0.97
2022-10-06T02:35:10.098Z,0.80
2022-10-06T02:38:12.594Z,0.73
2022-10-06T02:41:16.422Z,0.80
2022-10-06T02:44:18.919Z,0.80
2022-10-06T02:47:22.283Z,0.93
2022-10-06T02:50:24.810Z,0.90
2022-10-06T02:53:28.170Z,1.30
2022-10-06T02:56:32.156Z,1.37
2022-10-06T02:59:35.101Z,1.30
2022-10-06T03:02:37.711Z,1.40
2022-10-06T03:05:40.375Z,1.20
2022-10-06T03:08:42.838Z,1.00
2022-10-06T03:11:46.679Z,1.03
2022-10-06T03:14:49.148Z,1.07
2022-10-06T03:17:52.438Z,1.23
2022-10-06T03:20:54.941Z,1.20
2022-10-06T03:23:58.473Z,1.13
2022-10-06T03:27:03.330Z,1.40
2022-10-06T03:30:06.777Z,1.47
2022-10-06T03:33:09.263Z,1.03
2022-10-06T03:36:13.532Z,1.30
2022-10-06T03:39:16.103Z,1.40
2022-10-06T03:42:19.932Z,1.47
2022-10-06T03:45:22.439Z,1.30
2022-10-06T03:48:25.064Z,1.83
2022-10-06T03:51:29.581Z,1.30
2022-10-06T03:54:32.057Z,1.00
2022-10-06T03:57:35.848Z,1.47
2022-10-06T04:00:38.498Z,1.53
2022-10-06T04:03:41.253Z,1.50
2022-10-06T04:06:44.789Z,1.60
2022-10-06T04:09:47.277Z,1.43
2022-10-06T04:12:51.081Z,1.43
2022-10-06T04:15:53.551Z,1.63
2022-10-06T04:18:57.798Z,1.50
2022-10-06T04:22:00.294Z,1.23
2022-10-06T04:25:02.754Z,1.43
2022-10-06T04:28:06.592Z,1.57
2022-10-06T04:31:15.965Z,1.57
2022-10-06T04:34:18.486Z,1.60
2022-10-06T04:37:20.978Z,1.73
2022-10-06T04:40:23.496Z,1.43
2022-10-06T04:43:27.860Z,1.30
2022-10-06T04:46:47.161Z,2.00
2022-10-06T04:49:49.707Z,1.50
2022-10-06T04:52:54.219Z,1.60
2022-10-06T04:56:01.572Z,1.33
2022-10-06T04:59:05.403Z,1.20
2022-10-06T05:02:07.936Z,1.80
2022-10-06T05:05:10.500Z,1.70
2022-10-06T05:08:13.010Z,1.67
2022-10-06T05:11:18.119Z,1.40
2022-10-06T05:14:23.813Z,2.00
2022-10-06T05:17:26.321Z,1.50
2022-10-06T05:20:28.841Z,1.63
2022-10-06T05:23:32.801Z,1.70
2022-10-06T05:26:36.889Z,2.23
2022-10-06T05:29:40.733Z,2.30
2022-10-06T05:32:46.240Z,1.90
2022-10-06T05:35:52.375Z,2.03
2022-10-06T05:38:54.972Z,2.00
2022-10-06T05:41:57.449Z,1.63
2022-10-06T05:45:01.266Z,2.63
2022-10-06T05:48:04.385Z,1.73
2022-10-06T05:51:08.475Z,1.57
2022-10-06T05:54:10.957Z,2.00
2022-10-06T05:57:13.878Z,1.87
2022-10-06T06:00:17.934Z,1.70
2022-10-06T06:03:20.407Z,1.60
2022-10-06T06:06:24.921Z,2.10
2022-10-06T06:09:28.761Z,2.00
2022-10-06T06:12:31.243Z,2.30
2022-10-06T06:15:52.975Z,1.80
2022-10-06T06:18:55.931Z,1.83
2022-10-06T06:21:58.453Z,2.00
2022-10-06T06:25:00.910Z,2.40
2022-10-06T06:28:03.461Z,1.60
2022-10-06T06:31:09.712Z,2.13
2022-10-06T06:34:12.370Z,1.93
2022-10-06T06:37:15.567Z,1.90
2022-10-06T06:40:18.109Z,1.50
2022-10-06T06:43:20.580Z,2.00
2022-10-06T06:46:26.915Z,2.07
2022-10-06T06:49:29.660Z,2.73
2022-10-06T06:52:32.451Z,2.47
2022-10-06T06:55:34.986Z,2.00
2022-10-06T06:58:38.132Z,1.83
2022-10-06T07:01:45.362Z,1.90
2022-10-06T07:04:47.930Z,2.33
2022-10-06T07:07:51.326Z,2.33
2022-10-06T07:10:55.246Z,1.80
2022-10-06T07:14:01.069Z,2.47
2022-10-06T07:17:22.398Z,2.00
2022-10-06T07:20:42.750Z,2.17
2022-10-06T07:24:04.270Z,2.00
2022-10-06T07:27:06.787Z,2.07
2022-10-06T07:30:11.196Z,1.77
2022-10-06T07:33:15.685Z,1.83
2022-10-06T07:36:18.752Z,1.50
2022-10-06T07:39:21.617Z,1.97
2022-10-06T07:42:24.116Z,1.90
2022-10-06T07:45:41.327Z,1.80
2022-10-06T07:48:47.109Z,1.77
2022-10-06T07:51:49.602Z,2.60
2022-10-06T07:54:52.403Z,2.00
2022-10-06T07:57:55.067Z,2.23
2022-10-06T08:01:05.098Z,1.87
2022-10-06T08:04:08.927Z,2.77
2022-10-06T08:07:12.545Z,2.13
2022-10-06T08:10:18.379Z,1.83
2022-10-06T08:13:20.984Z,2.10
2022-10-06T08:16:25.767Z,2.30
2022-10-06T08:19:29.658Z,1.73
2022-10-06T08:22:32.491Z,2.03
2022-10-06T08:25:36.200Z,2.70
2022-10-06T08:28:39.346Z,1.87
2022-10-06T08:31:41.947Z,2.03
2022-10-06T08:34:47.247Z,2.00
2022-10-06T08:37:50.174Z,2.30
2022-10-06T08:40:52.689Z,1.83
2022-10-06T08:44:00.833Z,2.07
2022-10-06T08:47:05.550Z,2.60
2022-10-06T08:50:13.340Z,1.83
2022-10-06T08:53:26.146Z,1.70
2022-10-06T08:56:34.322Z,1.90
2022-10-06T08:59:37.745Z,2.00
2022-10-06T09:02:45.432Z,1.70
2022-10-06T09:05:49.526Z,2.13
2022-10-06T09:08:56.899Z,1.73
2022-10-06T09:12:07.657Z,1.63
2022-10-06T09:15:24.444Z,1.90
2022-10-06T09:18:56.080Z,2.03
2022-10-06T09:21:56.554Z,1.93
2022-10-06T09:25:04.032Z,2.27
2022-10-06T09:28:15.497Z,2.30
2022-10-06T09:31:23.600Z,2.00
2022-10-06T09:34:34.803Z,2.50
2022-10-06T09:37:54.490Z,2.20
2022-10-06T09:40:57.459Z,2.00
2022-10-06T09:44:03.813Z,2.13
2022-10-06T09:47:24.268Z,2.00
2022-10-06T09:50:28.452Z,2.33
2022-10-06T09:53:35.541Z,2.03
2022-10-06T09:56:42.037Z,1.90
2022-10-06T09:59:46.518Z,2.17
2022-10-06T10:02:49.181Z,2.17
2022-10-06T10:05:54.782Z,1.97
2022-10-06T10:09:30.340Z,1.80
2022-10-06T10:12:34.837Z,2.07
2022-10-06T10:15:42.526Z,2.20
2022-10-06T10:18:47.809Z,2.00
2022-10-06T10:21:50.320Z,1.73
2022-10-06T10:25:05.335Z,1.80
2022-10-06T10:28:17.468Z,2.30
2022-10-06T10:31:29.665Z,2.10
2022-10-06T10:35:06.983Z,1.80
2022-10-06T10:38:18.086Z,2.07
2022-10-06T10:41:25.446Z,1.60
2022-10-06T10:44:33.290Z,1.90
2022-10-06T10:47:38.792Z,1.80
2022-10-06T10:50:51.011Z,1.97
2022-10-06T10:53:58.347Z,2.13
2022-10-06T10:57:02.449Z,1.73
2022-10-06T11:00:08.801Z,2.17
2022-10-06T11:03:11.663Z,1.90
2022-10-06T11:06:43.710Z,1.80
2022-10-06T11:09:50.971Z,2.35
2022-10-06T11:13:14.825Z,2.00
2022-10-06T11:16:27.447Z,2.05
2022-10-06T11:19:41.259Z,1.90
2022-10-06T11:22:47.963Z,2.10
2022-10-06T11:25:56.317Z,1.67
2022-10-06T11:29:08.513Z,1.67
2022-10-06T11:32:23.719Z,1.63
2022-10-06T11:35:28.613Z,1.75
2022-10-06T11:38:40.217Z,1.52
2022-10-06T11:41:46.378Z,1.70
2022-10-06T11:44:57.003Z,1.97
2022-10-06T11:48:26.579Z,1.67
2022-10-06T11:51:31.222Z,1.70
2022-10-06T11:54:46.346Z,1.58
2022-10-06T11:58:37.522Z,1.77
2022-10-06T12:01:55.981Z,1.67
2022-10-06T12:05:55.688Z,1.98
2022-10-06T12:08:54.178Z,1.80
2022-10-06T12:11:58.058Z,1.92
2022-10-06T12:18:41.692Z,1.80
2022-10-06T12:21:51.221Z,1.60
2022-10-06T12:25:02.721Z,1.60
2022-10-06T12:28:15.970Z,1.60
2022-10-06T12:31:44.914Z,1.60
2022-10-06T12:35:03.732Z,1.33
2022-10-06T12:38:07.509Z,1.70
2022-10-06T12:41:11.778Z,1.42
2022-10-06T12:44:24.162Z,1.60
2022-10-06T12:47:35.456Z,1.63
2022-10-06T12:50:42.810Z,1.80
2022-10-06T12:53:55.447Z,1.60
2022-10-06T12:56:59.377Z,1.75
2022-10-06T13:00:01.916Z,1.90
2022-10-06T13:03:07.109Z,1.85
2022-10-06T13:06:11.809Z,1.73
2022-10-06T13:09:15.392Z,1.67
2022-10-06T13:12:27.342Z,1.60
2022-10-06T13:18:39.182Z,1.52
2022-10-06T13:21:43.012Z,1.42
2022-10-06T13:24:45.492Z,1.42
2022-10-06T13:27:50.939Z,1.45
2022-10-06T13:30:56.142Z,1.60
2022-10-06T13:34:01.660Z,1.35
2022-10-06T13:37:05.628Z,1.55
2022-10-06T13:40:21.784Z,1.45
2022-10-06T13:43:43.054Z,1.40
2022-10-06T13:46:49.349Z,1.42
2022-10-06T13:49:56.210Z,1.80
2022-10-06T13:53:01.744Z,1.63
2022-10-06T13:56:04.224Z,1.50
2022-10-06T13:59:38.214Z,1.40
2022-10-06T14:02:42.081Z,1.45
2022-10-06T14:05:47.286Z,1.77
2022-10-06T14:08:54.887Z,1.30
2022-10-06T14:12:04.762Z,1.50
2022-10-06T14:15:18.043Z,1.30
2022-10-06T14:18:24.676Z,1.50
2022-10-06T14:21:35.466Z,1.50
2022-10-06T14:24:51.293Z,1.50
2022-10-06T14:27:54.653Z,1.70
2022-10-06T14:30:57.607Z,1.60
2022-10-06T14:34:00.686Z,2.03
2022-10-06T14:37:03.229Z,1.93
2022-10-06T14:40:11.971Z,1.73
2022-10-06T14:43:14.814Z,1.40
2022-10-06T14:46:17.345Z,1.83
2022-10-06T14:49:20.333Z,1.50
2022-10-06T14:52:22.816Z,1.50
2022-10-06T14:55:30.281Z,1.23
2022-10-06T14:58:32.974Z,1.60
2022-10-06T15:01:37.472Z,1.37
2022-10-06T15:04:39.941Z,1.70
2022-10-06T15:08:00.508Z,1.40
2022-10-06T15:11:04.341Z,1.40
2022-10-06T15:14:08.553Z,1.50
2022-10-06T15:17:11.109Z,2.20
2022-10-06T15:20:14.209Z,1.73
2022-10-06T15:23:17.285Z,1.87
2022-10-06T15:26:40.845Z,1.23
2022-10-06T15:29:43.340Z,1.67
2022-10-06T15:32:46.324Z,1.47
2022-10-06T15:36:05.814Z,1.77
2022-10-06T15:39:10.448Z,1.70
2022-10-06T15:42:15.401Z,1.47
2022-10-06T15:45:18.227Z,1.70
2022-10-06T15:48:21.874Z,1.50
2022-10-06T15:51:24.469Z,1.60
2022-10-06T15:54:28.755Z,1.67
2022-10-06T15:57:32.607Z,2.07
2022-10-06T16:00:35.083Z,1.47
2022-10-06T16:03:41.359Z,1.53
2022-10-06T16:06:50.190Z,1.67
2022-10-06T16:09:52.877Z,1.53
2022-10-06T16:12:56.690Z,1.60
2022-10-06T16:15:59.224Z,1.63
2022-10-06T16:19:02.507Z,1.43
2022-10-06T16:22:06.639Z,2.27
2022-10-06T16:25:09.576Z,1.70
2022-10-06T16:28:14.611Z,1.67
2022-10-06T16:31:17.377Z,1.70
2022-10-06T16:34:20.040Z,1.57
2022-10-06T16:37:22.526Z,1.80
2022-10-06T16:40:25.005Z,1.33
2022-10-06T16:43:33.693Z,1.73
2022-10-06T16:46:36.612Z,1.37
2022-10-06T16:49:39.138Z,1.70
2022-10-06T16:52:41.864Z,1.60
2022-10-06T16:55:44.400Z,1.70
2022-10-06T16:58:50.207Z,2.13
2022-10-06T17:01:52.696Z,2.20
2022-10-06T17:04:55.169Z,1.80
2022-10-06T17:07:59.223Z,1.70
2022-10-06T17:11:03.743Z,1.70
2022-10-06T17:14:07.680Z,2.00
2022-10-06T17:17:10.173Z,2.17
2022-10-06T17:20:13.850Z,2.10
2022-10-06T17:23:16.324Z,2.53
2022-10-06T17:26:20.247Z,1.93
2022-10-06T17:29:24.681Z,1.63
2022-10-06T17:32:27.178Z,1.90
2022-10-06T17:35:29.663Z,2.23
2022-10-06T17:38:32.412Z,1.30
2022-10-06T17:41:36.759Z,1.93
2022-10-06T17:44:41.149Z,2.73
2022-10-06T17:47:43.617Z,3.33
2022-10-06T17:50:57.672Z,2.87
2022-10-06T17:54:01.686Z,2.73
2022-10-06T17:57:05.310Z,2.40
2022-10-06T18:00:10.615Z,2.30
2022-10-06T18:03:13.279Z,2.27
2022-10-06T18:06:17.418Z,2.60
2022-10-06T18:09:20.480Z,2.77
2022-10-06T18:12:22.013Z,3.47
2022-10-06T18:15:27.003Z,3.10
2022-10-06T18:18:30.299Z,2.63
2022-10-06T18:21:35.202Z,2.90
2022-10-06T18:24:38.110Z,2.40
2022-10-06T18:27:40.969Z,2.30
2022-10-06T18:30:50.406Z,2.13
2022-10-06T18:37:15.860Z,2.10
2022-10-06T18:40:18.534Z,1.83
2022-10-06T18:43:20.997Z,2.33
2022-10-06T18:46:42.765Z,1.97
2022-10-06T18:49:45.234Z,2.27
2022-10-06T18:52:47.723Z,1.67
2022-10-06T18:55:52.258Z,2.33
2022-10-06T18:58:54.746Z,2.10
2022-10-06T19:02:00.200Z,2.67
2022-10-06T19:05:03.074Z,1.77
2022-10-06T19:08:05.886Z,1.80
2022-10-06T19:11:26.338Z,2.43
2022-10-06T19:14:31.574Z,1.90
2022-10-06T19:17:35.719Z,1.73
2022-10-06T19:20:38.208Z,1.90
2022-10-06T19:23:41.387Z,1.70
2022-10-06T19:26:46.274Z,2.30
2022-10-06T19:29:52.812Z,1.60
2022-10-06T19:32:56.667Z,1.87
2022-10-06T19:36:00.373Z,1.90
2022-10-06T19:39:04.077Z,2.00
2022-10-06T19:42:24.649Z,2.13
2022-10-06T19:45:27.150Z,1.67
2022-10-06T19:48:31.634Z,1.83
2022-10-06T19:51:35.440Z,2.00
2022-10-06T19:54:38.544Z,2.20
2022-10-06T19:57:41.290Z,1.97
2022-10-06T20:00:44.137Z,2.00
2022-10-06T20:03:48.242Z,1.80
2022-10-06T20:06:51.961Z,2.77
2022-10-06T20:09:54.542Z,2.70
2022-10-06T20:12:58.562Z,1.83
2022-10-06T20:16:04.974Z,1.97
2022-10-06T20:19:10.705Z,2.10
2022-10-06T20:22:13.203Z,2.40
2022-10-06T20:25:15.717Z,2.03
2022-10-06T20:28:18.297Z,1.73
2022-10-06T20:31:22.992Z,1.93
2022-10-06T20:34:31.466Z,1.97
2022-10-06T20:37:33.953Z,1.73
2022-10-06T20:40:43.230Z,2.40
2022-10-06T20:43:45.761Z,1.80
2022-10-06T20:46:48.275Z,1.60
2022-10-06T20:49:54.991Z,1.97
2022-10-06T20:52:58.315Z,2.20
2022-10-06T20:56:01.492Z,2.00
2022-10-06T20:59:06.997Z,2.00
2022-10-06T21:02:11.307Z,1.97
2022-10-06T21:05:15.191Z,1.93
2022-10-06T21:08:17.756Z,1.77
2022-10-06T21:11:22.838Z,2.43
2022-10-06T21:14:26.061Z,2.40
2022-10-06T21:17:28.652Z,2.43
2022-10-06T21:20:32.494Z,1.83
2022-10-06T21:23:38.018Z,1.80
2022-10-06T21:26:42.420Z,2.20
2022-10-06T21:29:45.053Z,1.70
2022-10-06T21:32:47.674Z,1.77
2022-10-06T21:35:59.205Z,1.90
2022-10-06T21:39:04.378Z,2.13
2022-10-06T21:42:07.061Z,1.60
2022-10-06T21:45:10.375Z,1.70
2022-10-06T21:48:13.607Z,2.07
2022-10-06T21:51:17.464Z,1.70
2022-10-06T21:54:21.054Z,1.97
2022-10-06T21:57:23.564Z,2.03
2022-10-06T22:00:26.067Z,2.33
2022-10-06T22:03:28.599Z,1.70
2022-10-06T22:06:34.628Z,1.80
2022-10-06T22:09:37.187Z,1.83
2022-10-06T22:12:39.703Z,1.77
2022-10-06T22:15:42.222Z,2.00
2022-10-06T22:18:44.770Z,1.77
2022-10-06T22:21:49.426Z,2.00
2022-10-06T22:24:51.927Z,2.13
2022-10-06T22:27:54.417Z,2.33
2022-10-06T22:31:08.643Z,1.83
2022-10-06T22:34:14.139Z,2.00
2022-10-06T22:37:18.039Z,2.07
2022-10-06T22:40:20.583Z,1.83
2022-10-06T22:43:23.087Z,2.00
2022-10-06T22:46:26.559Z,2.10
2022-10-06T22:49:29.127Z,2.37
2022-10-06T22:52:32.967Z,2.33
2022-10-06T22:55:35.478Z,2.10
2022-10-06T22:58:38.862Z,1.87
2022-10-06T23:01:41.417Z,1.83
2022-10-06T23:04:43.926Z,1.80
2022-10-06T23:07:47.795Z,1.90
2022-10-06T23:10:50.494Z,2.10
2022-10-06T23:13:53.270Z,2.00
2022-10-06T23:16:55.852Z,2.63
2022-10-06T23:19:58.414Z,2.43
2022-10-06T23:23:02.292Z,2.17
2022-10-06T23:26:07.152Z,1.90
2022-10-06T23:29:12.795Z,1.83
2022-10-06T23:32:15.306Z,2.10
2022-10-06T23:35:17.819Z,2.03
2022-10-06T23:38:21.658Z,1.70
2022-10-06T23:41:24.262Z,1.60
2022-10-06T23:44:27.080Z,2.27
2022-10-06T23:47:29.594Z,2.10
2022-10-06T23:50:32.118Z,1.90
2022-10-06T23:53:36.578Z,2.40
2022-10-06T23:56:39.287Z,1.63
2022-10-06T23:59:41.800Z,1.67
